Portada
METAR-TAF:

METAR-TAF

Aeroports :

Gwadar, Pakistan

latitud: 25-13-59N, longitud: 062-19-46E, altitud: 29 m

METAR: manca

Hora: 16:17 (11:17 UTC)

Pronòstic

L'informe es va fer fa 7 hores i 47 minuts, a les 03:30 UTC
Pronòstic vàlid del 27 a les 06 UTC al 28 a les 06 UTC
Vent 8 kt del Sud-Oest amb ràfegues de 18 kt
Visibilitat: 6000 m
Núvols disperses a una alçada de 4000 ft
A partir de les UTC
Vent 7 kt del Nord/Nord-Oest
Visibilitat: 4000 m
calitja
Temporalment
l' 28 a les 00 UTC al 28 a les 04 UTC
Vent 2 kt amb direcció variable
Visibilitat: 0800 m
boira

TAF: OPGD 270330Z 2706/2806 23008G18KT 6000 SCT040 FM 271900 34007KT 4000 HZ NSC TEMPO 2800/2804 VRB02KT 0800 FG VVIII

Observacions i pronòstics meteorològics de més de 4000 aeroports (METAR i TAF).

Les estacions disponibles són els punts grocs i vermells al mapa.

Posi el ratolí al punt desitjat per veure el nom de l'estació.

Feu clic per veure les observacions i els pronòstics meteorològics.

Per canviar el mapa: feu clic els botons verds amb una creu de color negre per apropar; al botó verd amb un guió per allunyar la imatge; o en les fletxes verdes per a mapes adjacents.


METAR-TAF: